createdAt,value
2023-03-07T00:00:16.138Z,99035.39
2023-03-07T00:03:09.851Z,99040.52
2023-03-07T00:05:43.640Z,99036.11
2023-03-07T00:08:17.589Z,99037.13
2023-03-07T00:10:51.180Z,99036.86
2023-03-07T00:13:26.092Z,99036.89
2023-03-07T00:16:04.231Z,99037.42
2023-03-07T00:18:39.556Z,99038.15
2023-03-07T00:21:15.368Z,99041.95
2023-03-07T00:23:50.167Z,99041.41
2023-03-07T00:26:25.884Z,99039.17
2023-03-07T00:28:59.633Z,99039.52
2023-03-07T00:31:33.432Z,99039.02
2023-03-07T00:34:07.531Z,99040.88
2023-03-07T00:36:40.957Z,99039.17
2023-03-07T00:39:14.977Z,99039.15
2023-03-07T00:41:48.865Z,99036.75
2023-03-07T00:44:22.863Z,99033.52
2023-03-07T00:46:57.103Z,99027.93
2023-03-07T00:49:31.375Z,99028.88
2023-03-07T00:52:05.273Z,99029.73
2023-03-07T00:54:38.986Z,99034.05
2023-03-07T00:57:12.500Z,99032.58
2023-03-07T00:59:46.645Z,99034.90
2023-03-07T01:02:20.740Z,99029.45
2023-03-07T01:04:58.295Z,99030.77
2023-03-07T01:07:32.829Z,99031.96
2023-03-07T01:10:07.187Z,99029.15
2023-03-07T01:12:41.034Z,99031.88
2023-03-07T01:15:15.660Z,99032.20
2023-03-07T01:17:49.559Z,99032.30
2023-03-07T01:20:23.693Z,99031.45
2023-03-07T01:22:57.788Z,99028.25
2023-03-07T01:25:31.943Z,99026.08
2023-03-07T01:28:06.301Z,99026.39
2023-03-07T01:30:40.193Z,99022.74
2023-03-07T01:33:13.756Z,99021.95
2023-03-07T01:35:47.704Z,99023.85
2023-03-07T01:38:21.822Z,99019.10
2023-03-07T01:40:56.609Z,99022.55
2023-03-07T01:43:33.477Z,99021.44
2023-03-07T01:46:36.264Z,99021.49
2023-03-07T01:49:13.671Z,99019.29
2023-03-07T01:51:50.033Z,99021.02
2023-03-07T01:54:24.995Z,99020.50
2023-03-07T01:57:00.242Z,99019.69
2023-03-07T01:59:37.233Z,99016.98
2023-03-07T02:02:17.404Z,99011.99
2023-03-07T02:04:56.691Z,99013.85
2023-03-07T02:07:35.562Z,99016.00
2023-03-07T02:10:11.737Z,99014.25
2023-03-07T02:12:46.071Z,99015.98
2023-03-07T02:15:20.152Z,99017.39
2023-03-07T02:17:54.109Z,99014.60
2023-03-07T02:20:38.280Z,99017.90
2023-03-07T02:23:23.948Z,99016.83
2023-03-07T02:26:01.809Z,99018.79
2023-03-07T02:28:36.531Z,99022.70
2023-03-07T02:31:12.073Z,99020.98
2023-03-07T02:33:46.009Z,99016.83
2023-03-07T02:36:24.218Z,99016.82
2023-03-07T02:39:08.289Z,99017.68
2023-03-07T02:41:43.080Z,99017.88
2023-03-07T02:44:24.284Z,99017.52
2023-03-07T02:46:57.948Z,99017.19
2023-03-07T02:49:33.257Z,99016.20
2023-03-07T02:52:07.601Z,99012.51
2023-03-07T02:54:41.373Z,99014.09
2023-03-07T02:57:15.530Z,99015.16
2023-03-07T02:59:49.577Z,99014.46
2023-03-07T03:02:23.335Z,99017.62
2023-03-07T03:04:56.912Z,99018.91
2023-03-07T03:07:31.170Z,99017.27
2023-03-07T03:10:05.648Z,99013.62
2023-03-07T03:12:39.292Z,99012.06
2023-03-07T03:15:14.817Z,99008.86
2023-03-07T03:17:48.350Z,99006.77
2023-03-07T03:20:22.094Z,99010.13
2023-03-07T03:22:56.695Z,99009.18
2023-03-07T03:25:30.354Z,99006.48
2023-03-07T03:28:04.466Z,99005.70
2023-03-07T03:30:38.171Z,99005.77
2023-03-07T03:33:12.130Z,99000.63
2023-03-07T03:35:46.196Z,99001.46
2023-03-07T03:38:20.250Z,99003.55
2023-03-07T03:40:55.048Z,99003.23
2023-03-07T03:43:28.949Z,99002.23
2023-03-07T03:46:02.592Z,99001.89
2023-03-07T03:48:36.520Z,99006.58
2023-03-07T03:51:12.680Z,99009.36
2023-03-07T03:53:46.476Z,99005.29
2023-03-07T03:56:21.749Z,99003.77
2023-03-07T03:58:57.041Z,99003.92
2023-03-07T04:01:31.638Z,99001.61
2023-03-07T04:04:05.241Z,99002.96
2023-03-07T04:06:39.073Z,99005.72
2023-03-07T04:09:12.752Z,99005.33
2023-03-07T04:11:48.931Z,99003.33
2023-03-07T04:14:23.223Z,99003.16
2023-03-07T04:16:57.820Z,99001.40
2023-03-07T04:19:32.158Z,99000.09
2023-03-07T04:22:05.629Z,98997.80
2023-03-07T04:24:39.838Z,98999.60
2023-03-07T04:27:13.990Z,99001.77
2023-03-07T04:29:47.758Z,99002.42
2023-03-07T04:32:26.481Z,98999.75
2023-03-07T04:35:00.505Z,98998.08
2023-03-07T04:37:34.859Z,98992.96
2023-03-07T04:40:09.860Z,98991.40
2023-03-07T04:42:43.586Z,98988.77
2023-03-07T04:45:18.465Z,98990.09
2023-03-07T04:47:52.176Z,98988.87
2023-03-07T04:50:26.362Z,98989.89
2023-03-07T04:53:00.435Z,98985.91
2023-03-07T04:55:34.041Z,98984.55
2023-03-07T04:58:11.346Z,98982.61
2023-03-07T05:00:47.226Z,98983.64
2023-03-07T05:03:20.711Z,98980.96
2023-03-07T05:05:54.302Z,98980.02
2023-03-07T05:08:28.295Z,98977.15
2023-03-07T05:11:02.248Z,98975.55
2023-03-07T05:13:37.027Z,98977.81
2023-03-07T05:16:11.768Z,98981.87
2023-03-07T05:18:45.633Z,98983.47
2023-03-07T05:21:19.735Z,98987.50
2023-03-07T05:23:53.597Z,98988.33
2023-03-07T05:26:27.302Z,98985.39
2023-03-07T05:29:01.165Z,98989.38
2023-03-07T05:31:34.922Z,98991.02
2023-03-07T05:34:11.856Z,98991.94
2023-03-07T05:36:45.998Z,98994.98
2023-03-07T05:39:20.135Z,98998.06
2023-03-07T05:41:53.495Z,98998.71
2023-03-07T05:44:27.861Z,98997.91
2023-03-07T05:47:02.613Z,99001.89
2023-03-07T05:49:36.602Z,99001.61
2023-03-07T05:52:11.309Z,99001.83
2023-03-07T05:54:45.061Z,99002.27
2023-03-07T05:57:19.208Z,99005.02
2023-03-07T05:59:53.133Z,99003.73
2023-03-07T06:02:27.171Z,99004.98
2023-03-07T06:05:01.249Z,99001.20
2023-03-07T06:07:35.053Z,99001.14
2023-03-07T06:10:11.870Z,99000.98
2023-03-07T06:12:54.888Z,99002.30
2023-03-07T06:15:32.381Z,99000.28
2023-03-07T06:18:11.502Z,99001.59
2023-03-07T06:20:46.644Z,99002.13
2023-03-07T06:23:28.955Z,99003.08
2023-03-07T06:26:08.299Z,99007.60
2023-03-07T06:28:46.712Z,99011.77
2023-03-07T06:31:24.527Z,99011.77
2023-03-07T06:33:58.377Z,99014.52
2023-03-07T06:36:32.637Z,99005.59
2023-03-07T06:39:08.095Z,99000.78
2023-03-07T06:41:42.138Z,98998.63
2023-03-07T06:44:16.256Z,98999.70
2023-03-07T06:46:50.419Z,99004.02
2023-03-07T06:49:26.009Z,98998.52
2023-03-07T06:52:00.695Z,98994.44
2023-03-07T06:54:35.226Z,98989.73
2023-03-07T06:57:09.494Z,98986.61
2023-03-07T06:59:43.953Z,98985.09
2023-03-07T07:02:18.457Z,98983.54
2023-03-07T07:04:52.498Z,98980.13
2023-03-07T07:07:27.039Z,98979.52
2023-03-07T07:10:01.756Z,98978.35
2023-03-07T07:12:36.386Z,98971.51
2023-03-07T07:15:12.193Z,98972.56
2023-03-07T07:17:46.008Z,98968.63
2023-03-07T07:20:21.068Z,98968.80
2023-03-07T07:22:54.792Z,98969.21
2023-03-07T07:25:28.298Z,98964.50
2023-03-07T07:28:02.101Z,98958.27
2023-03-07T07:30:35.921Z,98954.10
2023-03-07T07:33:10.063Z,98945.90
2023-03-07T07:35:46.529Z,98942.91
2023-03-07T07:38:20.476Z,98942.27
2023-03-07T07:40:54.200Z,98944.56
2023-03-07T07:43:28.239Z,98948.13
2023-03-07T07:46:09.663Z,98948.67
2023-03-07T07:48:43.955Z,98945.15
2023-03-07T07:51:18.748Z,98941.93
2023-03-07T07:53:53.488Z,98937.08
2023-03-07T07:56:27.436Z,98928.89
2023-03-07T07:59:01.970Z,98926.86
2023-03-07T08:01:36.282Z,98921.45
2023-03-07T08:04:10.094Z,98919.17
2023-03-07T08:06:44.601Z,98914.00
2023-03-07T08:09:18.558Z,98907.71
2023-03-07T08:11:52.072Z,98904.95
2023-03-07T08:14:25.991Z,98900.14
2023-03-07T08:17:00.116Z,98894.61
2023-03-07T08:19:34.108Z,98887.27
2023-03-07T08:22:08.264Z,98880.81
2023-03-07T08:24:42.133Z,98874.27
2023-03-07T08:27:15.501Z,98870.99
2023-03-07T08:29:51.783Z,98873.66
2023-03-07T08:32:26.135Z,98873.86
2023-03-07T08:34:59.854Z,98876.52
2023-03-07T08:37:33.649Z,98875.22
2023-03-07T08:40:08.839Z,98872.05
2023-03-07T08:42:42.784Z,98862.22
2023-03-07T08:45:17.019Z,98866.16
2023-03-07T08:47:50.425Z,98857.77
2023-03-07T08:50:24.556Z,98856.63
2023-03-07T08:52:58.870Z,98858.64
2023-03-07T08:55:32.386Z,98854.34
2023-03-07T08:58:06.391Z,98852.79
2023-03-07T09:00:40.467Z,98851.80
2023-03-07T09:03:14.234Z,98851.48
2023-03-07T09:05:47.881Z,98848.17
2023-03-07T09:08:21.864Z,98843.23
2023-03-07T09:10:55.808Z,98840.85
2023-03-07T09:13:29.654Z,98840.71
2023-03-07T09:16:05.653Z,98838.33
2023-03-07T09:18:40.294Z,98842.73
2023-03-07T09:21:14.554Z,98839.77
2023-03-07T09:23:48.766Z,98836.20
2023-03-07T09:26:22.852Z,98833.38
2023-03-07T09:28:56.332Z,98827.79
2023-03-07T09:31:30.377Z,98825.77
2023-03-07T09:34:05.882Z,98827.50
2023-03-07T09:36:39.582Z,98823.30
2023-03-07T09:39:14.934Z,98821.79
2023-03-07T09:42:01.493Z,98819.87
2023-03-07T09:45:13.951Z,98816.54
2023-03-07T09:48:24.745Z,98814.70
2023-03-07T09:51:07.615Z,98806.88
2023-03-07T09:53:46.918Z,98796.19
2023-03-07T09:56:27.513Z,98794.02
2023-03-07T09:59:21.941Z,98791.16
2023-03-07T10:02:06.367Z,98791.42
2023-03-07T10:04:50.954Z,98791.78
2023-03-07T10:07:27.245Z,98789.90
2023-03-07T10:10:04.161Z,98786.81
2023-03-07T10:13:03.757Z,98782.85
2023-03-07T10:15:50.055Z,98771.62
2023-03-07T10:18:43.927Z,98769.50
2023-03-07T10:21:27.674Z,98770.70
2023-03-07T10:24:23.760Z,98771.60
2023-03-07T10:27:06.928Z,98768.90
2023-03-07T10:29:47.266Z,98771.85
2023-03-07T10:32:31.987Z,98768.05
2023-03-07T10:35:19.406Z,98771.87
2023-03-07T10:37:57.204Z,98765.70
2023-03-07T10:40:36.648Z,98762.01
2023-03-07T10:43:19.262Z,98757.84
2023-03-07T10:46:24.656Z,98749.06
2023-03-07T10:49:10.810Z,98734.83
2023-03-07T10:51:55.724Z,98717.06
2023-03-07T10:54:33.052Z,98711.20
2023-03-07T10:57:15.892Z,98703.94
2023-03-07T10:59:50.674Z,98698.59
2023-03-07T11:02:41.425Z,98696.63
2023-03-07T11:05:33.228Z,98687.25
2023-03-07T11:08:28.295Z,98681.56
2023-03-07T11:11:02.869Z,98679.34
2023-03-07T11:13:36.922Z,98671.39
2023-03-07T11:16:21.108Z,98668.98
2023-03-07T11:18:55.311Z,98670.04
2023-03-07T11:21:33.754Z,98656.92
2023-03-07T11:24:22.412Z,98652.28
2023-03-07T11:27:00.157Z,98643.41
2023-03-07T11:29:35.247Z,98641.16
2023-03-07T11:32:18.269Z,98638.95
2023-03-07T11:34:55.055Z,98629.98
2023-03-07T11:37:36.216Z,98619.66
2023-03-07T11:40:24.647Z,98617.13
2023-03-07T11:43:02.544Z,98611.84
2023-03-07T11:45:43.704Z,98610.45
2023-03-07T11:48:29.435Z,98606.36
2023-03-07T11:51:05.025Z,98598.87
2023-03-07T11:54:03.415Z,98582.47
2023-03-07T11:56:42.490Z,98580.38
2023-03-07T11:59:46.611Z,98589.80
2023-03-07T12:02:42.049Z,98588.98
2023-03-07T12:05:25.636Z,98582.40
2023-03-07T12:08:20.280Z,98585.11
2023-03-07T12:11:03.889Z,98573.48
2023-03-07T12:13:50.362Z,98569.89
2023-03-07T12:16:33.293Z,98567.16
2023-03-07T12:19:34.748Z,98556.83
2023-03-07T12:22:41.102Z,98553.40
2023-03-07T12:25:25.187Z,98553.17
2023-03-07T12:28:08.285Z,98553.70
2023-03-07T12:30:59.480Z,98554.30
2023-03-07T12:33:49.966Z,98545.45
2023-03-07T12:36:32.970Z,98541.11
2023-03-07T12:39:17.048Z,98534.52
2023-03-07T12:42:03.671Z,98528.58
2023-03-07T12:44:46.783Z,98526.86
2023-03-07T12:47:27.320Z,98521.77
2023-03-07T12:50:07.322Z,98522.20
2023-03-07T12:52:46.852Z,98519.54
2023-03-07T12:55:25.611Z,98513.42
2023-03-07T12:58:03.354Z,98511.41
2023-03-07T13:00:49.307Z,98511.89
2023-03-07T13:03:37.339Z,98503.73
2023-03-07T13:06:18.258Z,98501.46
2023-03-07T13:08:55.068Z,98504.29
2023-03-07T13:11:31.974Z,98509.20
2023-03-07T13:14:07.172Z,98506.73
2023-03-07T13:16:51.758Z,98505.66
2023-03-07T13:19:52.507Z,98510.64
2023-03-07T13:23:00.415Z,98506.66
2023-03-07T13:25:57.667Z,98507.34
2023-03-07T13:28:52.111Z,98504.53
2023-03-07T13:31:44.482Z,98498.69
2023-03-07T13:34:51.911Z,98495.82
2023-03-07T13:37:54.308Z,98492.72
2023-03-07T13:40:49.418Z,98492.42
2023-03-07T13:44:05.475Z,98484.84
2023-03-07T13:47:01.860Z,98472.34
2023-03-07T13:49:51.976Z,98468.48
2023-03-07T13:52:47.664Z,98466.63
2023-03-07T13:55:28.614Z,98462.77
2023-03-07T13:58:17.165Z,98459.69
2023-03-07T14:01:05.457Z,98458.22
2023-03-07T14:03:44.073Z,98454.67
2023-03-07T14:06:21.708Z,98451.58
2023-03-07T14:08:56.035Z,98443.09
2023-03-07T14:11:35.595Z,98435.73
2023-03-07T14:14:36.128Z,98430.06
2023-03-07T14:17:23.577Z,98430.81
2023-03-07T14:20:12.111Z,98421.52
2023-03-07T14:23:05.858Z,98420.89
2023-03-07T14:25:45.085Z,98418.80
2023-03-07T14:28:29.794Z,98419.66
2023-03-07T14:31:08.398Z,98416.30
2023-03-07T14:33:43.213Z,98413.81
2023-03-07T14:36:23.710Z,98416.17
2023-03-07T14:39:02.455Z,98415.95
2023-03-07T14:41:46.531Z,98415.46
2023-03-07T14:44:40.875Z,98412.16
2023-03-07T14:47:38.289Z,98406.17
2023-03-07T14:50:19.073Z,98403.56
2023-03-07T14:52:58.033Z,98402.20
2023-03-07T14:55:37.556Z,98396.90
2023-03-07T14:58:21.004Z,98393.66
2023-03-07T15:01:04.033Z,98387.08
2023-03-07T15:03:37.945Z,98384.86
2023-03-07T15:06:18.758Z,98387.02
2023-03-07T15:08:53.623Z,98384.54
2023-03-07T15:11:33.318Z,98384.76
2023-03-07T15:14:10.254Z,98383.52
2023-03-07T15:16:49.929Z,98389.77
2023-03-07T15:19:31.642Z,98389.65
2023-03-07T15:22:11.159Z,98386.52
2023-03-07T15:24:49.170Z,98381.43
2023-03-07T15:27:28.031Z,98375.92
2023-03-07T15:30:03.747Z,98377.81
2023-03-07T15:32:39.496Z,98374.08
2023-03-07T15:35:20.539Z,98372.83
2023-03-07T15:37:58.902Z,98370.02
2023-03-07T15:40:35.095Z,98366.67
2023-03-07T15:43:28.792Z,98360.89
2023-03-07T15:46:09.227Z,98357.98
2023-03-07T15:48:49.471Z,98355.60
2023-03-07T15:51:25.310Z,98354.83
2023-03-07T15:54:12.420Z,98348.20
2023-03-07T15:56:46.615Z,98350.29
2023-03-07T15:59:26.990Z,98347.30
2023-03-07T16:02:23.426Z,98348.27
2023-03-07T16:04:59.065Z,98344.48
2023-03-07T16:07:34.481Z,98336.21
2023-03-07T16:10:09.502Z,98333.02
2023-03-07T16:12:46.732Z,98325.50
2023-03-07T16:15:23.225Z,98328.14
2023-03-07T16:17:59.100Z,98325.00
2023-03-07T16:20:33.810Z,98321.52
2023-03-07T16:23:13.632Z,98317.06
2023-03-07T16:25:49.221Z,98313.16
2023-03-07T16:28:23.037Z,98320.23
2023-03-07T16:30:57.549Z,98316.70
2023-03-07T16:33:32.949Z,98316.01
2023-03-07T16:36:07.221Z,98317.99
2023-03-07T16:38:41.822Z,98315.45
2023-03-07T16:41:19.099Z,98315.38
2023-03-07T16:43:58.170Z,98313.64
2023-03-07T16:46:32.376Z,98310.45
2023-03-07T16:49:09.747Z,98310.91
2023-03-07T16:51:47.298Z,98310.31
2023-03-07T16:54:25.688Z,98306.64
2023-03-07T16:57:00.203Z,98311.54
2023-03-07T16:59:39.564Z,98306.13
2023-03-07T17:02:19.945Z,98305.33
2023-03-07T17:04:55.325Z,98307.48
2023-03-07T17:07:31.682Z,98306.39
2023-03-07T17:10:06.845Z,98307.69
2023-03-07T17:12:44.358Z,98302.29
2023-03-07T17:15:26.894Z,98298.73
2023-03-07T17:18:03.161Z,98298.39
2023-03-07T17:20:42.150Z,98297.09
2023-03-07T17:23:23.029Z,98299.89
2023-03-07T17:26:00.561Z,98298.48
2023-03-07T17:28:38.044Z,98294.70
2023-03-07T17:31:18.119Z,98290.96
2023-03-07T17:33:53.989Z,98289.51
2023-03-07T17:36:30.133Z,98290.90
2023-03-07T17:39:12.122Z,98293.37
2023-03-07T17:41:47.811Z,98292.89
2023-03-07T17:44:24.575Z,98292.39
2023-03-07T17:47:01.393Z,98292.40
2023-03-07T17:49:40.922Z,98288.63
2023-03-07T17:52:17.789Z,98285.81
2023-03-07T17:54:53.439Z,98286.35
2023-03-07T17:57:31.069Z,98283.86
2023-03-07T18:00:13.634Z,98284.40
2023-03-07T18:02:53.697Z,98281.64
2023-03-07T18:05:34.660Z,98280.52
2023-03-07T18:08:12.041Z,98279.27
2023-03-07T18:10:51.584Z,98278.69
2023-03-07T18:13:34.001Z,98277.40
2023-03-07T18:16:13.937Z,98273.70
2023-03-07T18:18:59.458Z,98274.84
2023-03-07T18:21:40.081Z,98274.23
2023-03-07T18:24:27.200Z,98269.49
2023-03-07T18:27:11.323Z,98265.07
2023-03-07T18:29:49.463Z,98261.67
2023-03-07T18:32:29.149Z,98260.70
2023-03-07T18:35:07.058Z,98263.39
2023-03-07T18:37:47.069Z,98261.39
2023-03-07T18:40:29.451Z,98258.59
2023-03-07T18:43:09.400Z,98262.42
2023-03-07T18:45:49.371Z,98261.41
2023-03-07T18:48:26.316Z,98259.95
2023-03-07T18:51:05.230Z,98261.31
2023-03-07T18:53:43.122Z,98262.66
2023-03-07T18:56:20.627Z,98265.48
2023-03-07T18:59:00.957Z,98262.38
2023-03-07T19:01:38.315Z,98255.80
2023-03-07T19:04:16.540Z,98260.98
2023-03-07T19:07:01.771Z,98261.86
2023-03-07T19:09:38.505Z,98260.85
2023-03-07T19:12:22.100Z,98259.08
2023-03-07T19:15:00.172Z,98256.65
2023-03-07T19:17:40.452Z,98255.42
2023-03-07T19:20:18.793Z,98256.56
2023-03-07T19:22:58.236Z,98252.77
2023-03-07T19:25:38.525Z,98256.17
2023-03-07T19:28:23.984Z,98253.31
2023-03-07T19:31:09.402Z,98246.46
2023-03-07T19:33:50.565Z,98248.67
2023-03-07T19:36:29.165Z,98245.98
2023-03-07T19:39:10.530Z,98242.86
2023-03-07T19:41:49.111Z,98245.98
2023-03-07T19:44:30.535Z,98247.05
2023-03-07T19:47:17.841Z,98243.31
2023-03-07T19:49:54.456Z,98240.61
2023-03-07T19:52:37.157Z,98241.98
2023-03-07T19:55:16.390Z,98245.75
2023-03-07T19:57:59.034Z,98247.10
2023-03-07T20:00:36.093Z,98244.03
2023-03-07T20:03:18.442Z,98242.44
2023-03-07T20:05:56.210Z,98241.92
2023-03-07T20:08:35.481Z,98236.47
2023-03-07T20:11:20.630Z,98233.39
2023-03-07T20:13:59.669Z,98232.53
2023-03-07T20:16:44.588Z,98227.67
2023-03-07T20:19:23.719Z,98223.55
2023-03-07T20:22:12.510Z,98222.63
2023-03-07T20:24:54.668Z,98222.80
2023-03-07T20:27:32.601Z,98220.42
2023-03-07T20:30:22.023Z,98216.12
2023-03-07T20:33:02.389Z,98220.05
2023-03-07T20:35:40.426Z,98224.60
2023-03-07T20:38:20.508Z,98224.44
2023-03-07T20:41:05.197Z,98222.23
2023-03-07T20:43:44.234Z,98220.55
2023-03-07T20:46:30.097Z,98222.66
2023-03-07T20:49:09.415Z,98213.91
2023-03-07T20:52:01.937Z,98215.33
2023-03-07T20:54:39.092Z,98211.48
2023-03-07T20:57:17.632Z,98215.20
2023-03-07T20:59:51.595Z,98219.04
2023-03-07T21:02:29.455Z,98215.45
2023-03-07T21:05:20.634Z,98206.75
2023-03-07T21:07:55.352Z,98208.09
2023-03-07T21:10:32.445Z,98210.61
2023-03-07T21:13:14.632Z,98217.09
2023-03-07T21:15:59.808Z,98218.75
2023-03-07T21:18:37.087Z,98224.25
2023-03-07T21:21:15.018Z,98217.77
2023-03-07T21:23:53.297Z,98220.10
2023-03-07T21:26:32.411Z,98215.98
2023-03-07T21:29:09.797Z,98221.20
2023-03-07T21:31:48.592Z,98224.43
2023-03-07T21:34:24.507Z,98230.10
2023-03-07T21:36:59.428Z,98228.59
2023-03-07T21:39:37.146Z,98222.82
2023-03-07T21:42:11.971Z,98223.18
2023-03-07T21:44:50.951Z,98225.77
2023-03-07T21:47:25.620Z,98226.79
2023-03-07T21:50:02.015Z,98229.48
2023-03-07T21:52:37.904Z,98230.98
2023-03-07T21:55:19.591Z,98233.42
2023-03-07T21:57:54.024Z,98233.30
2023-03-07T22:00:30.665Z,98232.50
2023-03-07T22:03:04.871Z,98229.21
2023-03-07T22:05:41.062Z,98234.44
2023-03-07T22:08:16.259Z,98237.08
2023-03-07T22:11:02.217Z,98249.05
2023-03-07T22:13:37.117Z,98254.64
2023-03-07T22:16:14.201Z,98276.42
2023-03-07T22:18:57.350Z,98288.95
2023-03-07T22:21:30.891Z,98293.34
2023-03-07T22:24:04.701Z,98303.37
2023-03-07T22:26:39.049Z,98308.56
2023-03-07T22:29:12.958Z,98310.11
2023-03-07T22:31:47.058Z,98313.77
2023-03-07T22:34:20.664Z,98315.38
2023-03-07T22:36:56.693Z,98312.31
2023-03-07T22:39:30.205Z,98317.38
2023-03-07T22:42:04.014Z,98326.30
2023-03-07T22:44:38.065Z,98327.67
2023-03-07T22:47:12.136Z,98331.14
2023-03-07T22:49:46.138Z,98334.09
2023-03-07T22:52:20.867Z,98334.84
2023-03-07T22:54:56.744Z,98338.28
2023-03-07T22:57:30.454Z,98346.08
2023-03-07T23:00:04.951Z,98347.52
2023-03-07T23:02:39.057Z,98350.02
2023-03-07T23:05:13.589Z,98345.80
2023-03-07T23:07:48.708Z,98344.11
2023-03-07T23:10:23.025Z,98346.88
2023-03-07T23:12:56.645Z,98348.73
2023-03-07T23:15:30.814Z,98352.80
2023-03-07T23:18:04.698Z,98355.83
2023-03-07T23:20:39.934Z,98360.81
2023-03-07T23:23:14.090Z,98364.52
2023-03-07T23:25:47.847Z,98365.36
2023-03-07T23:28:22.056Z,98362.64
2023-03-07T23:30:55.884Z,98372.56
2023-03-07T23:33:30.201Z,98373.48
2023-03-07T23:36:04.375Z,98369.70
2023-03-07T23:38:38.490Z,98376.79
2023-03-07T23:41:12.337Z,98377.63
2023-03-07T23:43:46.724Z,98376.17
2023-03-07T23:46:20.803Z,98377.95
2023-03-07T23:48:55.379Z,98377.43
2023-03-07T23:51:29.182Z,98379.54
2023-03-07T23:54:02.745Z,98378.02
2023-03-07T23:56:36.660Z,98383.20
2023-03-07T23:59:10.247Z,98381.76
